sensor_id;sensor_type;location;lat;lon;timestamp;P1;P2;P0
76330;PMS7003;65148;51.912;15.570;2023-02-27T00:11:45;22;18;12
76330;PMS7003;65148;51.912;15.570;2023-02-27T00:26:46;15;13;9
76330;PMS7003;65148;51.912;15.570;2023-02-27T00:42:09;14;12;8
76330;PMS7003;65148;51.912;15.570;2023-02-27T00:57:10;16;12;8
76330;PMS7003;65148;51.912;15.570;2023-02-27T01:12:13;14;10;7
76330;PMS7003;65148;51.912;15.570;2023-02-27T01:27:15;8;7;5
76330;PMS7003;65148;51.912;15.570;2023-02-27T01:42:36;6;6;4
76330;PMS7003;65148;51.912;15.570;2023-02-27T01:57:38;11;6;4
76330;PMS7003;65148;51.912;15.570;2023-02-27T02:12:41;6;4;3
76330;PMS7003;65148;51.912;15.570;2023-02-27T03:29:10;7;5;4
76330;PMS7003;65148;51.912;15.570;2023-02-27T03:59:32;5;4;3
76330;PMS7003;65148;51.912;15.570;2023-02-27T04:45:18;46;42;28
76330;PMS7003;65148;51.912;15.570;2023-02-27T05:00:38;61;46;30
76330;PMS7003;65148;51.912;15.570;2023-02-27T05:15:47;19;16;13
76330;PMS7003;65148;51.912;15.570;2023-02-27T05:31:02;12;10;8
76330;PMS7003;65148;51.912;15.570;2023-02-27T05:46:27;15;11;8
76330;PMS7003;65148;51.912;15.570;2023-02-27T06:01:33;12;11;9
76330;PMS7003;65148;51.912;15.570;2023-02-27T06:16:36;11;9;3
76330;PMS7003;65148;51.912;15.570;2023-02-27T06:32:03;16;11;8
76330;PMS7003;65148;51.912;15.570;2023-02-27T06:47:05;16;14;10
76330;PMS7003;65148;51.912;15.570;2023-02-27T07:02:08;14;13;8
76330;PMS7003;65148;51.912;15.570;2023-02-27T07:17:14;9;9;6
76330;PMS7003;65148;51.912;15.570;2023-02-27T07:32:30;17;14;10
76330;PMS7003;65148;51.912;15.570;2023-02-27T07:47:32;11;10;8
76330;PMS7003;65148;51.912;15.570;2023-02-27T08:02:34;17;16;11
76330;PMS7003;65148;51.912;15.570;2023-02-27T08:17:36;22;14;10
76330;PMS7003;65148;51.912;15.570;2023-02-27T08:32:57;10;7;5
76330;PMS7003;65148;51.912;15.570;2023-02-27T08:47:59;6;5;4
76330;PMS7003;65148;51.912;15.570;2023-02-27T09:03:01;11;9;6
76330;PMS7003;65148;51.912;15.570;2023-02-27T09:18:03;5;5;3
76330;PMS7003;65148;51.912;15.570;2023-02-27T09:33:24;7;6;5
76330;PMS7003;65148;51.912;15.570;2023-02-27T09:48:29;10;8;5
76330;PMS7003;65148;51.912;15.570;2023-02-27T10:19:11;4;4;4
76330;PMS7003;65148;51.912;15.570;2023-02-27T10:34:18;9;7;5
76330;PMS7003;65148;51.912;15.570;2023-02-27T10:49:22;10;8;6
76330;PMS7003;65148;51.912;15.570;2023-02-27T11:04:57;3;3;2
76330;PMS7003;65148;51.912;15.570;2023-02-27T11:20:03;3;3;1
76330;PMS7003;65148;51.912;15.570;2023-02-27T11:35:16;2;1;0
76330;PMS7003;65148;51.912;15.570;2023-02-27T11:50:35;2;2;1
76330;PMS7003;65148;51.912;15.570;2023-02-27T12:05:48;5;4;3
76330;PMS7003;65148;51.912;15.570;2023-02-27T12:36:24;4;3;3
76330;PMS7003;65148;51.912;15.570;2023-02-27T13:37:22;2;2;1
76330;PMS7003;65148;51.912;15.570;2023-02-27T14:05:27;0;0;0
76330;PMS7003;65148;51.912;15.570;2023-02-27T14:36:04;0;0;0
76330;PMS7003;65148;51.912;15.570;2023-02-27T14:51:08;3;2;1
76330;PMS7003;65148;51.912;15.570;2023-02-27T15:21:48;5;3;2
76330;PMS7003;65148;51.912;15.570;2023-02-27T15:36:55;3;2;1
76330;PMS7003;65148;51.912;15.570;2023-02-27T15:52:10;9;8;6
76330;PMS7003;65148;51.912;15.570;2023-02-27T16:07:25;13;10;7
76330;PMS7003;65148;51.912;15.570;2023-02-27T16:22:30;12;11;9
76330;PMS7003;65148;51.912;15.570;2023-02-27T16:37:41;14;12;8
76330;PMS7003;65148;51.912;15.570;2023-02-27T16:53:06;12;11;10
76330;PMS7003;65148;51.912;15.570;2023-02-27T17:08:08;35;29;22
76330;PMS7003;65148;51.912;15.570;2023-02-27T17:23:10;50;39;27
76330;PMS7003;65148;51.912;15.570;2023-02-27T17:38:12;66;50;32
76330;PMS7003;65148;51.912;15.570;2023-02-27T17:53:34;35;24;16
76330;PMS7003;65148;51.912;15.570;2023-02-27T18:08:36;40;32;21
76330;PMS7003;65148;51.912;15.570;2023-02-27T18:23:38;49;40;25
76330;PMS7003;65148;51.912;15.570;2023-02-27T18:38:40;49;41;25
76330;PMS7003;65148;51.912;15.570;2023-02-27T18:54:01;46;41;28
76330;PMS7003;65148;51.912;15.570;2023-02-27T19:09:06;40;32;20
76330;PMS7003;65148;51.912;15.570;2023-02-27T19:24:10;55;41;29
76330;PMS7003;65148;51.912;15.570;2023-02-27T19:39:12;40;34;24
76330;PMS7003;65148;51.912;15.570;2023-02-27T19:54:30;58;41;29
76330;PMS7003;65148;51.912;15.570;2023-02-27T20:09:31;54;42;24
76330;PMS7003;65148;51.912;15.570;2023-02-27T20:24:33;41;36;24
76330;PMS7003;65148;51.912;15.570;2023-02-27T20:39:34;54;44;28
76330;PMS7003;65148;51.912;15.570;2023-02-27T20:54:58;48;38;26
76330;PMS7003;65148;51.912;15.570;2023-02-27T21:09:59;49;34;21
76330;PMS7003;65148;51.912;15.570;2023-02-27T21:25:00;54;43;28
76330;PMS7003;65148;51.912;15.570;2023-02-27T21:40:02;56;43;28
76330;PMS7003;65148;51.912;15.570;2023-02-27T21:55:28;55;44;29
76330;PMS7003;65148;51.912;15.570;2023-02-27T22:10:29;46;38;25
76330;PMS7003;65148;51.912;15.570;2023-02-27T22:25:30;32;27;17
76330;PMS7003;65148;51.912;15.570;2023-02-27T22:40:32;31;28;19
76330;PMS7003;65148;51.912;15.570;2023-02-27T22:55:55;19;18;13
76330;PMS7003;65148;51.912;15.570;2023-02-27T23:10:57;19;15;11
76330;PMS7003;65148;51.912;15.570;2023-02-27T23:25:58;31;26;17
76330;PMS7003;65148;51.912;15.570;2023-02-27T23:41:04;24;23;14
76330;PMS7003;65148;51.912;15.570;2023-02-27T23:56:23;17;16;12
